createdAt,value
2023-01-19T00:01:52.941Z,101628.75
2023-01-19T00:04:23.501Z,101627.66
2023-01-19T00:06:55.628Z,101625.59
2023-01-19T00:09:26.059Z,101609.69
2023-01-19T00:11:56.475Z,101612.66
2023-01-19T00:14:27.130Z,101610.59
2023-01-19T00:16:57.661Z,101619.59
2023-01-19T00:19:31.011Z,101612.56
2023-01-19T00:22:03.078Z,101611.78
2023-01-19T00:24:33.477Z,101607.31
2023-01-19T00:27:05.186Z,101614.59
2023-01-19T00:29:36.163Z,101611.06
2023-01-19T00:32:08.259Z,101593.63
2023-01-19T00:34:40.362Z,101607.34
2023-01-19T00:37:12.878Z,101451.59
2023-01-19T00:39:43.304Z,101619.94
2023-01-19T00:42:44.397Z,101617.13
2023-01-19T00:45:17.672Z,101617.13
2023-01-19T00:47:48.990Z,101613.56
2023-01-19T00:50:20.544Z,101515.69
2023-01-19T00:52:54.090Z,101590.59
2023-01-19T00:55:25.454Z,101599.34
2023-01-19T00:57:56.108Z,101577.94
2023-01-19T01:00:27.352Z,101590.44
2023-01-19T01:02:58.616Z,101589.34
2023-01-19T01:05:29.499Z,101591.47
2023-01-19T01:08:01.596Z,101592.72
2023-01-19T01:10:32.554Z,101577.19
2023-01-19T01:13:22.495Z,101587.81
2023-01-19T01:15:54.052Z,101584.00
2023-01-19T01:18:25.048Z,101537.19
2023-01-19T01:20:56.404Z,101571.72
2023-01-19T01:23:28.510Z,101573.75
2023-01-19T01:25:58.985Z,101566.09
2023-01-19T01:28:29.675Z,101545.69
2023-01-19T01:31:00.287Z,101549.19
2023-01-19T01:33:40.791Z,101559.72
2023-01-19T01:36:12.834Z,101559.47
2023-01-19T01:38:45.183Z,101537.19
2023-01-19T01:41:16.535Z,101540.31
2023-01-19T01:43:49.251Z,101516.34
2023-01-19T01:46:20.784Z,101513.28
2023-01-19T01:48:58.399Z,101528.28
2023-01-19T01:51:32.423Z,101525.06
2023-01-19T01:54:18.221Z,101522.56
2023-01-19T01:56:50.662Z,101523.72
2023-01-19T01:59:40.064Z,101519.06
2023-01-19T02:02:35.176Z,101501.13
2023-01-19T02:05:08.764Z,101507.09
2023-01-19T02:08:02.409Z,101504.72
2023-01-19T02:10:51.593Z,101510.94
2023-01-19T02:13:23.479Z,101503.22
2023-01-19T02:15:55.899Z,101473.66
2023-01-19T02:18:29.357Z,101435.69
2023-01-19T02:21:09.362Z,101493.16
2023-01-19T02:23:45.366Z,101492.59
2023-01-19T02:26:18.707Z,101496.13
2023-01-19T02:28:53.222Z,101493.72
2023-01-19T02:31:24.028Z,101503.31
2023-01-19T02:33:55.141Z,101491.94
2023-01-19T02:36:29.572Z,101485.44
2023-01-19T02:39:05.391Z,101485.47
2023-01-19T02:41:53.249Z,101476.13
2023-01-19T02:44:25.901Z,101480.28
2023-01-19T02:46:57.401Z,101484.88
2023-01-19T02:49:32.861Z,101480.75
2023-01-19T02:52:20.605Z,101394.63
2023-01-19T02:55:05.399Z,101463.91
2023-01-19T02:57:55.721Z,101452.91
2023-01-19T03:00:39.089Z,101444.47
2023-01-19T03:03:25.895Z,101451.16
2023-01-19T03:06:04.839Z,101447.34
2023-01-19T03:08:45.263Z,101426.59
2023-01-19T03:11:18.330Z,101384.00
2023-01-19T03:13:54.175Z,101403.41
2023-01-19T03:16:28.433Z,101421.59
2023-01-19T03:19:00.976Z,101419.22
2023-01-19T03:21:33.888Z,101404.41
2023-01-19T03:24:07.564Z,101413.59
2023-01-19T03:26:46.524Z,101384.63
2023-01-19T03:29:20.301Z,101396.94
2023-01-19T03:31:52.189Z,101397.22
2023-01-19T03:34:24.854Z,101272.72
2023-01-19T03:36:58.165Z,101380.00
2023-01-19T03:39:30.478Z,101381.66
2023-01-19T03:42:07.741Z,101383.63
2023-01-19T03:44:41.139Z,101381.25
2023-01-19T03:47:14.780Z,101291.00
2023-01-19T03:49:47.910Z,101367.41
2023-01-19T03:52:18.336Z,101379.00
2023-01-19T03:54:49.385Z,101361.81
2023-01-19T03:57:21.639Z,101363.25
2023-01-19T03:59:52.231Z,101353.47
2023-01-19T04:02:22.846Z,101333.47
2023-01-19T04:04:53.742Z,101331.81
2023-01-19T04:07:24.269Z,101318.22
2023-01-19T04:09:54.765Z,101331.81
2023-01-19T04:12:27.047Z,101316.16
2023-01-19T04:14:57.657Z,101320.31
2023-01-19T04:17:28.254Z,101316.09
2023-01-19T04:19:58.753Z,101314.38
2023-01-19T04:22:29.647Z,101306.41
2023-01-19T04:25:00.119Z,101305.81
2023-01-19T04:27:32.519Z,101302.91
2023-01-19T04:30:02.994Z,101298.03
2023-01-19T04:32:34.803Z,101278.69
2023-01-19T04:35:05.231Z,101292.16
2023-01-19T04:37:35.725Z,101295.25
2023-01-19T04:40:06.968Z,101167.56
2023-01-19T04:42:45.911Z,101292.25
2023-01-19T04:45:16.802Z,101309.69
2023-01-19T04:47:47.283Z,101303.31
2023-01-19T04:50:18.585Z,101303.47
2023-01-19T04:52:49.796Z,101301.56
2023-01-19T04:55:20.840Z,101288.72
2023-01-19T04:57:53.001Z,101297.31
2023-01-19T05:00:24.315Z,101301.19
2023-01-19T05:02:54.935Z,101315.38
2023-01-19T05:05:25.793Z,101306.84
2023-01-19T05:07:56.678Z,101256.59
2023-01-19T05:10:27.211Z,101297.34
2023-01-19T05:12:59.442Z,101306.84
2023-01-19T05:15:30.473Z,101310.81
2023-01-19T05:18:01.098Z,101314.38
2023-01-19T05:20:31.601Z,101317.78
2023-01-19T05:23:02.373Z,101320.72
2023-01-19T05:25:33.233Z,101328.84
2023-01-19T05:28:05.424Z,101337.56
2023-01-19T05:30:36.400Z,101331.31
2023-01-19T05:33:07.119Z,101334.56
2023-01-19T05:35:37.516Z,101332.00
2023-01-19T05:38:08.095Z,101325.03
2023-01-19T05:40:38.563Z,101330.66
2023-01-19T05:43:10.686Z,101332.00
2023-01-19T05:45:42.010Z,101322.13
2023-01-19T05:48:12.650Z,101320.38
2023-01-19T05:50:43.139Z,101321.88
2023-01-19T05:53:14.139Z,101320.09
2023-01-19T05:55:44.684Z,101319.53
2023-01-19T05:58:16.805Z,101326.31
2023-01-19T06:00:47.293Z,101305.03
2023-01-19T06:03:18.082Z,101318.91
2023-01-19T06:05:48.627Z,101311.56
2023-01-19T06:08:19.405Z,101312.72
2023-01-19T06:10:49.801Z,101310.94
2023-01-19T06:13:22.173Z,101311.22
2023-01-19T06:15:58.602Z,101305.03
2023-01-19T06:18:29.202Z,101297.38
2023-01-19T06:21:01.011Z,101301.81
2023-01-19T06:23:34.577Z,101303.56
2023-01-19T06:26:06.227Z,101300.91
2023-01-19T06:28:38.319Z,101295.88
2023-01-19T06:31:09.869Z,101294.38
2023-01-19T06:33:40.434Z,101275.31
2023-01-19T06:36:14.016Z,101290.06
2023-01-19T06:38:44.633Z,101284.59
2023-01-19T06:41:15.171Z,101295.50
2023-01-19T06:43:47.387Z,101303.78
2023-01-19T06:46:18.065Z,101288.28
2023-01-19T06:48:49.167Z,101282.53
2023-01-19T06:51:19.657Z,101282.53
2023-01-19T06:53:50.379Z,101277.53
2023-01-19T06:56:20.912Z,101287.41
2023-01-19T06:58:54.451Z,101287.59
2023-01-19T07:01:25.040Z,101287.44
2023-01-19T07:03:55.498Z,101283.44
2023-01-19T07:06:25.894Z,101277.84
2023-01-19T07:08:57.477Z,101280.50
2023-01-19T07:11:33.105Z,101290.22
2023-01-19T07:14:05.331Z,101288.44
2023-01-19T07:16:35.868Z,101295.81
2023-01-19T07:19:06.648Z,101303.47
2023-01-19T07:21:37.130Z,101294.63
2023-01-19T07:24:07.924Z,101299.34
2023-01-19T07:26:38.348Z,101296.97
2023-01-19T07:29:10.702Z,101216.19
2023-01-19T07:31:41.273Z,101295.19
2023-01-19T07:34:12.581Z,101256.69
2023-01-19T07:36:43.085Z,101289.88
2023-01-19T07:39:13.453Z,101284.22
2023-01-19T07:41:43.855Z,101280.69
2023-01-19T07:44:15.871Z,101277.28
2023-01-19T07:46:46.407Z,101282.47
2023-01-19T07:49:16.907Z,101287.19
2023-01-19T07:51:47.274Z,101278.63
2023-01-19T07:54:17.769Z,101296.66
2023-01-19T07:56:48.170Z,101294.03
2023-01-19T07:59:20.242Z,101279.50
2023-01-19T08:01:56.673Z,101290.47
2023-01-19T08:07:47.487Z,101284.88
2023-01-19T08:10:23.984Z,101293.75
2023-01-19T08:13:00.727Z,101289.03
2023-01-19T08:15:33.052Z,101291.09
2023-01-19T08:22:36.639Z,101286.38
2023-01-19T08:25:10.402Z,101283.13
2023-01-19T08:27:46.745Z,101276.47
2023-01-19T08:30:51.857Z,101280.59
2023-01-19T08:33:28.042Z,101279.16
2023-01-19T08:36:01.311Z,101284.72
2023-01-19T08:38:35.447Z,101228.06
2023-01-19T08:41:09.522Z,101285.63
2023-01-19T08:43:42.289Z,101215.72
2023-01-19T08:46:12.770Z,101284.47
2023-01-19T08:48:46.336Z,101205.88
2023-01-19T08:51:20.261Z,101258.97
2023-01-19T08:54:03.867Z,101244.66
2023-01-19T08:56:38.882Z,101254.13
2023-01-19T09:08:01.153Z,101268.63
2023-01-19T09:10:37.133Z,101250.56
2023-01-19T09:13:12.389Z,101265.91
2023-01-19T09:15:44.845Z,101250.84
2023-01-19T09:18:17.668Z,101213.56
2023-01-19T09:20:50.115Z,101272.47
2023-01-19T09:23:23.660Z,101277.69
2023-01-19T09:26:01.151Z,101268.53
2023-01-19T09:28:33.230Z,101265.03
2023-01-19T09:31:09.640Z,101254.38
2023-01-19T09:33:41.215Z,101269.81
2023-01-19T09:36:13.593Z,101256.75
2023-01-19T09:38:45.048Z,101275.06
2023-01-19T09:41:24.299Z,101268.81
2023-01-19T09:44:00.204Z,101261.94
2023-01-19T09:46:38.653Z,101154.59
2023-01-19T09:49:16.292Z,101265.09
2023-01-19T09:51:50.762Z,101248.09
2023-01-19T09:54:23.757Z,101242.53
2023-01-19T09:56:57.686Z,101256.50
2023-01-19T09:59:32.047Z,101256.31
2023-01-19T10:02:21.957Z,101231.13
2023-01-19T10:05:04.330Z,101229.28
2023-01-19T10:07:56.054Z,101234.41
2023-01-19T10:10:31.509Z,101213.81
2023-01-19T10:13:22.339Z,101221.53
2023-01-19T10:16:05.337Z,101232.28
2023-01-19T10:18:48.885Z,101225.06
2023-01-19T10:21:24.714Z,101212.19
2023-01-19T10:23:59.926Z,101225.06
2023-01-19T10:26:37.606Z,101227.34
2023-01-19T10:29:16.940Z,101235.00
2023-01-19T10:31:50.502Z,101164.50
2023-01-19T10:34:23.705Z,101210.28
2023-01-19T10:37:06.585Z,101215.63
2023-01-19T10:39:38.866Z,101219.22
2023-01-19T10:42:15.812Z,101207.91
2023-01-19T10:44:50.283Z,101219.69
2023-01-19T10:47:24.111Z,101212.59
2023-01-19T10:49:56.971Z,101191.78
2023-01-19T10:52:34.487Z,101195.50
2023-01-19T10:55:08.707Z,101204.75
2023-01-19T10:57:44.525Z,101196.63
2023-01-19T11:00:40.277Z,101184.16
2023-01-19T11:03:26.982Z,101180.97
2023-01-19T11:06:20.355Z,101195.50
2023-01-19T11:08:53.382Z,101185.91
2023-01-19T11:11:26.923Z,101170.31
2023-01-19T11:14:13.201Z,101153.94
2023-01-19T11:16:52.948Z,101178.09
2023-01-19T11:19:32.263Z,101156.41
2023-01-19T11:22:22.810Z,101167.44
2023-01-19T11:24:54.676Z,101173.84
2023-01-19T11:27:26.484Z,101156.41
2023-01-19T11:30:11.438Z,101085.31
2023-01-19T11:32:44.910Z,101154.28
2023-01-19T11:35:38.835Z,101141.09
2023-01-19T11:38:22.306Z,100979.09
2023-01-19T11:40:57.474Z,101087.97
2023-01-19T11:43:48.373Z,101137.59
2023-01-19T11:46:22.576Z,101129.41
2023-01-19T11:49:02.917Z,101125.31
2023-01-19T11:51:40.766Z,101133.84
2023-01-19T11:54:24.795Z,101120.19
2023-01-19T11:56:57.837Z,101147.16
2023-01-19T12:03:21.163Z,101118.75
2023-01-19T12:05:58.301Z,101105.19
2023-01-19T12:08:38.401Z,101101.25
2023-01-19T12:11:13.580Z,101098.75
2023-01-19T12:13:45.630Z,101090.25
2023-01-19T12:16:22.453Z,101086.41
2023-01-19T12:18:59.027Z,101073.25
2023-01-19T12:21:31.187Z,101080.00
2023-01-19T12:31:21.574Z,101039.13
2023-01-19T12:33:52.549Z,101040.91
2023-01-19T12:36:42.463Z,101049.03
2023-01-19T12:39:20.142Z,101043.66
2023-01-19T12:41:54.741Z,101044.38
2023-01-19T12:44:36.404Z,101040.13
2023-01-19T12:47:28.106Z,101025.19
2023-01-19T12:50:06.636Z,101023.81
2023-01-19T12:52:48.884Z,101022.97
2023-01-19T12:55:25.152Z,101023.84
2023-01-19T12:58:03.698Z,101001.91
2023-01-19T13:00:52.910Z,100896.69
2023-01-19T13:03:46.515Z,100995.69
2023-01-19T13:06:21.128Z,100978.28
2023-01-19T13:09:03.377Z,100982.16
2023-01-19T13:11:34.750Z,100979.31
2023-01-19T13:14:37.199Z,100987.78
2023-01-19T13:17:35.962Z,100963.97
2023-01-19T13:20:25.480Z,100967.78
2023-01-19T13:23:29.740Z,100954.88
2023-01-19T13:30:38.424Z,100968.31
2023-01-19T13:33:23.187Z,100878.22
2023-01-19T13:35:56.503Z,100977.59
2023-01-19T13:38:38.887Z,100968.47
2023-01-19T13:41:09.512Z,100972.78
2023-01-19T13:43:41.850Z,100984.47
2023-01-19T13:46:18.267Z,100957.66
2023-01-19T13:49:01.580Z,100974.91
2023-01-19T13:51:35.381Z,100967.47
2023-01-19T13:54:07.020Z,100958.59
2023-01-19T13:56:37.758Z,100971.94
2023-01-19T13:59:15.035Z,100860.13
2023-01-19T14:01:48.625Z,100881.53
2023-01-19T14:04:31.505Z,100966.88
2023-01-19T14:07:05.104Z,100957.03
2023-01-19T14:09:38.398Z,100942.94
2023-01-19T14:12:16.706Z,100938.91
2023-01-19T14:14:49.981Z,100883.13
2023-01-19T14:17:26.670Z,100921.19
2023-01-19T14:20:00.600Z,100920.06
2023-01-19T14:26:57.698Z,100906.41
2023-01-19T14:29:33.336Z,100862.13
2023-01-19T14:32:19.063Z,100886.88
2023-01-19T14:34:57.344Z,100771.19
2023-01-19T14:37:34.196Z,100899.66
2023-01-19T14:40:21.927Z,100881.63
2023-01-19T14:42:56.160Z,100895.81
2023-01-19T14:45:31.812Z,100898.41
2023-01-19T14:48:07.670Z,100891.44
2023-01-19T14:50:54.179Z,100846.53
2023-01-19T14:53:46.550Z,100891.88
2023-01-19T14:56:32.586Z,100870.03
2023-01-19T14:59:05.726Z,100813.38
2023-01-19T15:01:40.972Z,100881.00
2023-01-19T15:04:17.199Z,100872.31
2023-01-19T15:06:55.098Z,100872.91
2023-01-19T15:09:28.120Z,100855.03
2023-01-19T15:12:10.346Z,100858.94
2023-01-19T15:14:41.237Z,100847.47
2023-01-19T15:17:26.419Z,100855.78
2023-01-19T15:19:57.928Z,100830.81
2023-01-19T15:22:32.052Z,100850.31
2023-01-19T15:25:09.199Z,100825.22
2023-01-19T15:27:40.116Z,100844.88
2023-01-19T15:30:24.413Z,100838.44
2023-01-19T15:32:55.179Z,100832.59
2023-01-19T15:35:26.924Z,100642.34
2023-01-19T15:37:59.945Z,100811.78
2023-01-19T15:40:32.615Z,100807.31
2023-01-19T15:43:03.384Z,100812.59
2023-01-19T15:45:42.887Z,100714.72
2023-01-19T15:48:14.792Z,100792.00
2023-01-19T15:50:49.062Z,100802.00
2023-01-19T15:53:24.680Z,100801.41
2023-01-19T15:55:58.968Z,100771.94
2023-01-19T15:58:33.698Z,100780.84
2023-01-19T16:01:11.603Z,100769.63
2023-01-19T16:03:43.182Z,100782.22
2023-01-19T16:06:18.833Z,100772.31
2023-01-19T16:09:00.150Z,100765.25
2023-01-19T16:11:35.982Z,100765.56
2023-01-19T16:14:07.044Z,100768.78
2023-01-19T16:16:40.611Z,100759.94
2023-01-19T16:19:11.523Z,100759.41
2023-01-19T16:21:50.053Z,100757.66
2023-01-19T16:24:23.312Z,100767.38
2023-01-19T16:26:58.005Z,100756.47
2023-01-19T16:29:31.750Z,100749.16
2023-01-19T16:32:02.466Z,100752.38
2023-01-19T16:34:32.944Z,100709.38
2023-01-19T16:37:04.112Z,100642.84
2023-01-19T16:39:37.572Z,100736.16
2023-01-19T16:42:11.556Z,100735.00
2023-01-19T16:44:42.124Z,100733.78
2023-01-19T16:47:26.243Z,100639.25
2023-01-19T16:49:59.596Z,100735.00
2023-01-19T16:52:31.655Z,100732.69
2023-01-19T16:55:02.336Z,100728.44
2023-01-19T16:57:35.473Z,100722.09
2023-01-19T17:00:19.493Z,100708.84
2023-01-19T17:02:50.999Z,100725.94
2023-01-19T17:05:25.037Z,100724.16
2023-01-19T17:07:56.747Z,100521.69
2023-01-19T17:10:27.421Z,100711.47
2023-01-19T17:13:00.747Z,100670.84
2023-01-19T17:15:37.322Z,100700.47
2023-01-19T17:18:11.243Z,100686.47
2023-01-19T17:20:45.799Z,100682.97
2023-01-19T17:23:18.776Z,100682.09
2023-01-19T17:25:56.144Z,100677.53
2023-01-19T17:28:33.814Z,100676.38
2023-01-19T17:33:55.174Z,100676.50
2023-01-19T17:36:33.972Z,100676.66
2023-01-19T17:39:12.345Z,100650.00
2023-01-19T17:41:45.939Z,100680.34
2023-01-19T17:44:21.278Z,100680.66
2023-01-19T17:46:52.286Z,100670.66
2023-01-19T17:49:23.023Z,100653.28
2023-01-19T17:51:55.256Z,100672.13
2023-01-19T17:54:30.638Z,100662.41
2023-01-19T17:57:01.309Z,100665.94
2023-01-19T17:59:37.410Z,100645.63
2023-01-19T18:02:12.839Z,100649.47
2023-01-19T18:04:43.663Z,100644.44
2023-01-19T18:07:14.159Z,100622.38
2023-01-19T18:09:48.637Z,100643.56
2023-01-19T18:12:20.681Z,100637.09
2023-01-19T18:15:00.657Z,100617.66
2023-01-19T18:17:30.517Z,100628.56
2023-01-19T18:20:01.376Z,100604.72
2023-01-19T18:22:33.022Z,100605.00
2023-01-19T18:25:03.680Z,100599.13
2023-01-19T18:27:38.396Z,100603.66
2023-01-19T18:30:12.659Z,100588.81
2023-01-19T18:32:46.260Z,100604.06
2023-01-19T18:35:17.146Z,100603.78
2023-01-19T18:37:52.587Z,100585.09
2023-01-19T18:40:28.060Z,100592.59
2023-01-19T18:42:59.075Z,100589.50
2023-01-19T18:56:14.679Z,100564.91
2023-01-19T18:58:47.867Z,100573.38
2023-01-19T19:01:25.941Z,100582.47
2023-01-19T19:03:57.551Z,100571.91
2023-01-19T19:06:32.976Z,100568.66
2023-01-19T19:09:04.197Z,100576.00
2023-01-19T19:11:35.840Z,100577.47
2023-01-19T19:14:09.048Z,100589.19
2023-01-19T19:16:48.958Z,100572.03
2023-01-19T19:19:21.091Z,100587.38
2023-01-19T19:21:55.986Z,100580.44
2023-01-19T19:24:26.727Z,100570.56
2023-01-19T19:26:57.297Z,100580.28
2023-01-19T19:29:29.291Z,100581.75
2023-01-19T19:32:01.481Z,100577.34
2023-01-19T19:34:35.008Z,100567.00
2023-01-19T19:37:05.967Z,100575.97
2023-01-19T19:39:39.824Z,100564.06
2023-01-19T19:42:13.294Z,100565.50
2023-01-19T19:44:43.746Z,100564.34
2023-01-19T19:47:17.400Z,100557.25
2023-01-19T19:49:47.843Z,100566.81
2023-01-19T19:52:20.291Z,100561.38
2023-01-19T19:54:53.338Z,100560.16
2023-01-19T19:57:28.468Z,100547.78
2023-01-19T20:00:01.434Z,100428.00
2023-01-19T20:02:36.695Z,100561.31
2023-01-19T20:05:10.534Z,100550.84
2023-01-19T20:07:49.944Z,100505.00
2023-01-19T20:10:20.908Z,100544.34
2023-01-19T20:12:53.689Z,100537.09
2023-01-19T20:15:26.899Z,100531.25
2023-01-19T20:17:59.206Z,100523.00
2023-01-19T20:21:08.317Z,100512.41
2023-01-19T20:27:44.934Z,100552.75
2023-01-19T20:30:16.260Z,100537.09
2023-01-19T20:32:50.150Z,100532.59
2023-01-19T20:35:30.390Z,100525.72
2023-01-19T20:38:01.120Z,100519.69
2023-01-19T20:43:40.426Z,100524.50
2023-01-19T20:46:12.566Z,100517.75
2023-01-19T20:48:44.674Z,100520.50
2023-01-19T20:51:19.666Z,100526.53
2023-01-19T20:53:50.908Z,100516.06
2023-01-19T20:56:21.407Z,100508.78
2023-01-19T20:58:53.464Z,100509.06
2023-01-19T21:01:25.851Z,100510.06
2023-01-19T21:04:12.143Z,100505.53
2023-01-19T21:06:44.543Z,100496.25
2023-01-19T21:09:15.153Z,100507.31
2023-01-19T21:11:45.806Z,100507.00
2023-01-19T21:14:16.283Z,100498.25
2023-01-19T21:16:46.832Z,100491.03
2023-01-19T21:19:17.595Z,100493.03
2023-01-19T21:21:50.138Z,100496.56
2023-01-19T21:24:20.731Z,100488.56
2023-01-19T21:26:51.224Z,100491.84
2023-01-19T21:29:21.720Z,100495.88
2023-01-19T21:31:52.259Z,100479.03
2023-01-19T21:34:22.934Z,100487.34
2023-01-19T21:36:55.037Z,100485.44
2023-01-19T21:39:25.610Z,100499.72
2023-01-19T21:41:56.139Z,100497.97
2023-01-19T21:44:26.598Z,100495.34
2023-01-19T21:46:57.218Z,100465.66
2023-01-19T21:49:27.865Z,100497.38
2023-01-19T21:52:08.132Z,100471.84
2023-01-19T21:54:39.060Z,100416.13
2023-01-19T21:57:09.727Z,100490.88
2023-01-19T21:59:40.317Z,100504.69
2023-01-19T22:02:14.609Z,100486.09
2023-01-19T22:04:45.453Z,100500.41
2023-01-19T22:07:26.277Z,100499.78
2023-01-19T22:09:56.776Z,100497.41
2023-01-19T22:12:27.373Z,100494.16
2023-01-19T22:14:58.307Z,100495.66
2023-01-19T22:17:29.345Z,100503.56
2023-01-19T22:20:00.629Z,100508.25
2023-01-19T22:22:35.085Z,100502.00
2023-01-19T22:25:06.030Z,100506.66
2023-01-19T22:27:38.468Z,100509.81
2023-01-19T22:30:10.276Z,100370.06
2023-01-19T22:32:40.712Z,100507.84
2023-01-19T22:35:11.934Z,100524.44
2023-01-19T22:37:44.347Z,100501.25
2023-01-19T22:40:15.845Z,100515.88
2023-01-19T22:42:49.356Z,100530.69
2023-01-19T22:45:19.859Z,100525.91
2023-01-19T22:47:50.348Z,100516.31
2023-01-19T22:50:21.134Z,100518.97
2023-01-19T22:52:57.239Z,100522.59
2023-01-19T22:55:27.877Z,100512.31
2023-01-19T22:57:59.425Z,100511.06
2023-01-19T23:00:30.959Z,100521.13
2023-01-19T23:03:01.340Z,100519.50
2023-01-19T23:05:31.843Z,100513.97
2023-01-19T23:08:04.082Z,100511.56
2023-01-19T23:10:35.805Z,100530.16
2023-01-19T23:13:06.399Z,100521.38
2023-01-19T23:15:37.105Z,100523.88
2023-01-19T23:18:07.792Z,100488.56
2023-01-19T23:20:38.905Z,100515.09
2023-01-19T23:23:11.016Z,100528.41
2023-01-19T23:25:41.549Z,100493.72
2023-01-19T23:28:12.335Z,100521.88
2023-01-19T23:30:42.909Z,100520.41
2023-01-19T23:33:13.436Z,100528.66
2023-01-19T23:35:43.812Z,100530.69
2023-01-19T23:38:16.597Z,100401.63
2023-01-19T23:40:47.134Z,100493.72
2023-01-19T23:43:17.722Z,100530.94
2023-01-19T23:45:48.299Z,100483.28
2023-01-19T23:48:18.956Z,100524.44
2023-01-19T23:50:49.573Z,100520.75
2023-01-19T23:53:21.862Z,100521.59
2023-01-19T23:55:52.920Z,100525.03
2023-01-19T23:58:23.460Z,100532.44
